Time;durP1;ratioP1;P1;durP2;ratioP2;P2;SDS_P1;SDS_P2;PMS_P1;PMS_P2;Temp;Humidity;BMP_temperature;BMP_pressure;BME280_temperature;BME280_humidity;BME280_pressure;Samples;Min_cycle;Max_cycle;Signal;HPM_P1;HPM_P2
2021/06/01 00:01:31;;;;;;;0.00;0.00;;;;;;;9.95;83.57;102305.66;10527930;28;20138;-64
2021/06/01 00:06:33;;;;;;;0.10;0.10;;;;;;;9.78;85.63;102306.13;10528198;28;20028;-64
2021/06/01 00:11:33;;;;;;;0.10;0.10;;;;;;;9.67;86.56;102303.44;10535375;28;20478;-64
2021/06/01 00:16:35;;;;;;;0.10;0.10;;;;;;;9.62;87.63;102308.25;10531669;28;20016;-64
2021/06/01 00:21:36;;;;;;;0.10;0.10;;;;;;;9.56;87.99;102301.56;10498791;28;20018;-64
2021/06/01 00:26:38;;;;;;;0.10;0.10;;;;;;;9.58;88.52;102304.13;10475671;28;20020;-64
2021/06/01 00:31:38;;;;;;;0.10;0.10;;;;;;;9.55;88.93;102309.69;10492825;28;20020;-64
2021/06/01 00:36:39;;;;;;;0.00;0.00;;;;;;;9.46;87.90;102313.88;10479888;28;20031;-64
2021/06/01 00:41:40;;;;;;;0.10;0.10;;;;;;;9.40;86.53;102307.22;10526467;28;20094;-63
2021/06/01 00:46:41;;;;;;;0.05;0.05;;;;;;;9.39;87.29;102305.50;10533990;28;20016;-64
2021/06/01 00:51:41;;;;;;;0.10;0.10;;;;;;;9.51;87.26;102304.59;10520574;28;20019;-64
2021/06/01 00:56:42;;;;;;;0.00;0.00;;;;;;;9.60;86.15;102307.50;10527871;28;20026;-64
2021/06/01 01:01:43;;;;;;;0.10;0.10;;;;;;;9.56;86.41;102300.72;10533255;28;20103;-64
2021/06/01 01:07:14;;;;;;;0.05;0.05;;;;;;;9.47;86.90;102308.44;10534144;28;20103;-64
2021/06/01 01:12:20;;;;;;;0.10;0.10;;;;;;;9.49;86.31;102303.03;10514958;28;20386;-64
2021/06/01 01:17:23;;;;;;;0.10;0.10;;;;;;;9.42;86.46;102302.59;10533652;28;20046;-64
2021/06/01 01:22:26;;;;;;;0.10;0.10;;;;;;;9.36;86.47;102295.09;10532585;28;20016;-64
2021/06/01 01:28:03;;;;;;;0.00;0.00;;;;;;;9.37;86.86;102295.97;10527801;28;20059;-64
2021/06/01 01:33:20;;;;;;;0.10;0.10;;;;;;;9.40;85.69;102301.91;10526418;28;20023;-64
2021/06/01 01:38:23;;;;;;;0.10;0.10;;;;;;;9.34;85.93;102305.03;10532226;28;20494;-64
2021/06/01 01:43:29;;;;;;;0.10;0.10;;;;;;;9.26;85.85;102310.91;10522730;28;20228;-64
2021/06/01 01:53:56;;;;;;;0.10;0.10;;;;;;;9.03;84.91;102298.47;10532461;28;20028;-64
2021/06/01 01:58:57;;;;;;;0.00;0.00;;;;;;;8.87;84.31;102303.19;10531442;28;20534;-64
2021/06/01 02:03:58;;;;;;;0.00;0.00;;;;;;;8.70;84.70;102299.97;10484947;28;20027;-64
2021/06/01 02:08:58;;;;;;;0.10;0.10;;;;;;;8.60;85.58;102288.31;10490242;28;20020;-64
2021/06/01 02:14:02;;;;;;;0.10;0.10;;;;;;;8.54;86.94;102284.28;10524501;28;20470;-63
2021/06/01 02:19:08;;;;;;;0.00;0.00;;;;;;;8.51;87.76;102276.53;10531949;28;20016;-64
2021/06/01 02:24:47;;;;;;;0.10;0.10;;;;;;;8.47;87.06;102283.03;10564808;22;20040;-65
2021/06/01 02:30:00;;;;;;;0.05;0.05;;;;;;;8.44;87.91;102285.06;10536827;28;20494;-65
2021/06/01 02:35:07;;;;;;;0.00;0.00;;;;;;;8.35;87.97;102279.41;10546581;28;20424;-65
2021/06/01 02:40:10;;;;;;;0.03;0.03;;;;;;;8.23;87.91;102282.94;10567428;28;20032;-64
2021/06/01 02:45:14;;;;;;;0.00;0.00;;;;;;;8.11;88.22;102281.13;10575933;28;20141;-65
2021/06/01 02:50:16;;;;;;;0.10;0.10;;;;;;;8.02;87.34;102282.63;10576381;28;20024;-65
2021/06/01 02:55:19;;;;;;;0.00;0.00;;;;;;;7.96;88.10;102283.06;10575404;28;20079;-64
2021/06/01 03:00:22;;;;;;;0.10;0.10;;;;;;;7.90;87.80;102281.69;10553616;28;20017;-63
2021/06/01 03:05:29;;;;;;;0.00;0.00;;;;;;;7.85;88.49;102282.94;10551680;28;20027;-64
2021/06/01 03:10:29;;;;;;;0.00;0.00;;;;;;;7.84;89.12;102268.84;10581075;28;20024;-64
2021/06/01 03:15:29;;;;;;;0.00;0.00;;;;;;;7.87;88.53;102265.97;10582280;28;20027;-65
2021/06/01 03:20:29;;;;;;;0.03;0.03;;;;;;;7.88;88.07;102261.50;10570568;28;20023;-64
2021/06/01 03:25:30;;;;;;;0.00;0.00;;;;;;;7.97;87.59;102270.63;10522003;28;20032;-64
2021/06/01 03:30:30;;;;;;;0.00;0.00;;;;;;;8.13;87.92;102261.50;10570509;28;20400;-64
2021/06/01 03:35:31;;;;;;;0.00;0.00;;;;;;;8.50;88.50;102256.25;10581727;28;20405;-65
2021/06/01 03:40:31;;;;;;;0.10;0.10;;;;;;;8.69;87.46;102255.75;10581653;28;20055;-65
2021/06/01 03:45:32;;;;;;;0.00;0.00;;;;;;;8.81;87.57;102256.66;10574513;28;20247;-65
2021/06/01 03:50:34;;;;;;;0.00;0.00;;;;;;;8.98;88.39;102258.94;10551444;28;20284;-65
2021/06/01 03:55:34;;;;;;;0.10;0.10;;;;;;;9.48;87.04;102256.97;10581350;28;20034;-63
2021/06/01 04:00:35;;;;;;;0.10;0.10;;;;;;;10.62;85.55;102251.56;10575650;28;20122;-63
2021/06/01 04:05:36;;;;;;;0.10;0.10;;;;;;;11.64;83.51;102249.28;10580341;28;20504;-62
2021/06/01 04:10:36;;;;;;;0.10;0.10;;;;;;;12.45;80.52;102236.03;10580106;28;20026;-63
2021/06/01 04:15:36;;;;;;;0.10;0.10;;;;;;;12.90;78.99;102240.88;10562091;28;20481;-61
2021/06/01 04:20:37;;;;;;;0.10;0.10;;;;;;;13.23;78.53;102239.59;10579576;28;20612;-62
2021/06/01 04:25:38;;;;;;;0.10;0.10;;;;;;;13.76;77.41;102238.28;10576538;28;20423;-62
2021/06/01 04:30:43;;;;;;;0.10;0.10;;;;;;;15.84;72.25;102231.00;10572483;28;20020;-64
2021/06/01 04:35:44;;;;;;;0.10;0.10;;;;;;;16.70;67.98;102227.28;10537940;28;20393;-64
2021/06/01 04:40:44;;;;;;;0.10;0.10;;;;;;;16.79;65.83;102243.47;10537483;28;20016;-64
2021/06/01 04:45:45;;;;;;;0.10;0.10;;;;;;;17.83;63.00;102237.38;10536721;28;20088;-64
2021/06/01 04:50:45;;;;;;;0.10;0.10;;;;;;;18.38;61.75;102228.38;10536394;28;20470;-65
2021/06/01 04:55:46;;;;;;;0.00;0.00;;;;;;;18.26;62.18;102230.63;10537002;28;20536;-65
2021/06/01 05:00:46;;;;;;;0.10;0.10;;;;;;;18.52;62.00;102227.63;10535933;28;20537;-65
2021/06/01 05:05:47;;;;;;;0.10;0.10;;;;;;;18.93;61.76;102227.38;10536183;28;20303;-66
2021/06/01 05:10:47;;;;;;;0.10;0.10;;;;;;;18.72;62.47;102228.03;10535673;28;20031;-65
2021/06/01 05:15:49;;;;;;;0.10;0.10;;;;;;;19.30;62.97;102231.16;10563570;28;20420;-65
2021/06/01 05:20:49;;;;;;;0.10;0.10;;;;;;;21.00;58.71;102225.66;10577787;28;20011;-65
2021/06/01 05:25:50;;;;;;;0.10;0.10;;;;;;;20.68;58.98;102230.59;10577431;28;20111;-65
2021/06/01 05:36:08;;;;;;;0.10;0.10;;;;;;;19.75;62.79;102221.28;10577703;28;20032;-65
2021/06/01 05:41:09;;;;;;;0.10;0.10;;;;;;;20.26;62.71;102226.72;10577451;28;20526;-64
2021/06/01 05:46:10;;;;;;;0.10;0.10;;;;;;;19.95;63.65;102223.41;10559491;28;20028;-65
2021/06/01 05:51:13;;;;;;;0.10;0.10;;;;;;;20.13;62.66;102226.59;10560028;28;20284;-65
2021/06/01 05:56:14;;;;;;;0.15;0.15;;;;;;;20.79;60.48;102230.06;10535154;28;20081;-65
2021/06/01 06:01:14;;;;;;;0.10;0.10;;;;;;;21.43;57.54;102233.78;10574526;28;20068;-64
2021/06/01 06:06:15;;;;;;;0.10;0.10;;;;;;;22.53;55.69;102223.94;10576540;28;20030;-65
2021/06/01 06:11:15;;;;;;;0.10;0.10;;;;;;;23.68;52.63;102224.66;10576695;28;20020;-65
2021/06/01 06:16:19;;;;;;;0.10;0.10;;;;;;;23.85;50.38;102222.31;10576268;28;20438;-64
2021/06/01 06:21:20;;;;;;;0.10;0.10;;;;;;;23.54;49.44;102225.72;10576013;28;20030;-63
2021/06/01 06:26:20;;;;;;;0.10;0.10;;;;;;;23.18;50.58;102225.09;10538284;28;20035;-63
2021/06/01 06:31:20;;;;;;;0.10;0.10;;;;;;;22.92;52.08;102235.91;10531958;28;20027;-64
2021/06/01 06:36:21;;;;;;;0.10;0.10;;;;;;;22.26;55.18;102233.88;10533752;28;20074;-64
2021/06/01 06:41:21;;;;;;;0.10;0.10;;;;;;;21.42;56.85;102242.94;10533378;28;20266;-63
2021/06/01 06:51:26;;;;;;;0.10;0.10;;;;;;;21.43;58.43;102244.63;10541559;28;20031;-64
2021/06/01 06:56:29;;;;;;;0.10;0.10;;;;;;;22.02;56.47;102238.75;10553205;28;20049;-63
2021/06/01 07:01:29;;;;;;;;;;;;;;;22.66;52.30;102226.69;10583413;28;20023;-64
2021/06/01 07:06:29;;;;;;;0.10;0.10;;;;;;;23.24;52.36;102235.16;10553270;28;20385;-64
2021/06/01 07:11:30;;;;;;;0.10;0.10;;;;;;;23.95;51.98;102230.88;10582405;28;20383;-64
2021/06/01 07:16:30;;;;;;;0.00;0.00;;;;;;;24.32;49.67;102221.09;10582534;28;20027;-64
2021/06/01 07:21:31;;;;;;;0.10;0.10;;;;;;;24.49;46.61;102220.59;10582754;28;20019;-64
2021/06/01 07:26:32;;;;;;;0.10;0.10;;;;;;;25.13;46.15;102218.69;10581943;28;20057;-64
2021/06/01 07:31:32;;;;;;;0.10;0.10;;;;;;;25.86;44.00;102218.03;10581801;28;20020;-63
2021/06/01 07:36:32;;;;;;;0.10;0.10;;;;;;;26.58;37.76;102209.97;10581789;28;20077;-65
2021/06/01 07:41:33;;;;;;;0.10;0.10;;;;;;;26.98;37.65;102215.66;10541433;28;20259;-65
2021/06/01 07:46:33;;;;;;;0.10;0.10;;;;;;;26.91;34.13;102205.91;10539203;28;20024;-64
2021/06/01 07:51:33;;;;;;;0.10;0.10;;;;;;;26.99;33.87;102209.13;10539321;28;20306;-65
2021/06/01 07:56:34;;;;;;;0.05;0.05;;;;;;;26.83;34.49;102207.91;10543000;28;20028;-65
2021/06/01 08:01:35;;;;;;;0.10;0.10;;;;;;;26.52;30.88;102203.53;10583584;27;20469;-64
2021/06/01 08:06:37;;;;;;;0.10;0.10;;;;;;;26.10;32.04;102211.66;10580604;28;20030;-65
2021/06/01 08:11:37;;;;;;;0.10;0.10;;;;;;;25.83;31.60;102208.44;10576283;28;20020;-64
2021/06/01 08:16:40;;;;;;;0.10;0.10;;;;;;;25.24;32.28;102191.56;10537960;28;20016;-64
2021/06/01 08:26:56;;;;;;;0.10;0.10;;;;;;;24.94;33.01;102193.28;10538573;28;20041;-64
2021/06/01 08:31:57;;;;;;;0.10;0.10;;;;;;;24.10;35.93;102187.06;10537785;28;20490;-64
2021/06/01 08:36:58;;;;;;;0.10;0.10;;;;;;;23.68;38.49;102189.28;10537486;28;20024;-64
2021/06/01 08:41:58;;;;;;;0.10;0.10;;;;;;;23.54;34.59;102183.03;10571847;28;20027;-62
2021/06/01 08:47:00;;;;;;;0.10;0.10;;;;;;;23.30;35.60;102179.13;10549596;28;20556;-62
2021/06/01 08:52:01;;;;;;;0.10;0.10;;;;;;;23.59;40.67;102176.94;10536236;28;20141;-64
2021/06/01 08:57:02;;;;;;;0.00;0.00;;;;;;;23.99;35.95;102174.97;10535940;28;20111;-63
2021/06/01 09:02:03;;;;;;;0.10;0.10;;;;;;;24.15;34.82;102168.19;10535928;28;20028;-64
2021/06/01 09:07:13;;;;;;;0.10;0.10;;;;;;;24.25;35.25;102168.56;10535285;28;20394;-63
2021/06/01 09:12:31;;;;;;;0.10;0.10;;;;;;;24.16;35.61;102158.97;10533605;28;20042;-63
2021/06/01 09:22:51;;;;;;;0.10;0.10;;;;;;;25.13;36.47;102170.44;10535654;28;20035;-63
2021/06/01 09:27:53;;;;;;;0.10;0.10;;;;;;;25.75;38.61;102146.75;10535059;28;20454;-64
2021/06/01 09:32:54;;;;;;;0.00;0.00;;;;;;;25.59;35.89;102150.09;10516751;28;20028;-64
2021/06/01 09:37:58;;;;;;;0.10;0.10;;;;;;;25.63;35.04;102147.75;10534623;28;20036;-63
2021/06/01 09:42:58;;;;;;;0.10;0.10;;;;;;;25.53;34.29;102142.81;10534522;28;20016;-62
2021/06/01 09:48:00;;;;;;;0.10;0.10;;;;;;;25.53;36.29;102137.34;10534590;28;20093;-61
2021/06/01 09:53:26;;;;;;;0.10;0.10;;;;;;;25.83;37.11;102132.00;10534841;28;20028;-62
2021/06/01 09:58:37;;;;;;;0.10;0.10;;;;;;;25.81;32.56;102133.25;10534353;28;20336;-64
2021/06/01 10:03:45;;;;;;;0.10;0.10;;;;;;;25.34;33.65;102132.94;10534393;28;20474;-64
2021/06/01 10:08:49;;;;;;;0.10;0.10;;;;;;;25.41;34.84;102120.91;10534068;28;20036;-64
2021/06/01 10:13:50;;;;;;;0.10;0.10;;;;;;;26.22;33.95;102120.75;10534653;28;20048;-62
2021/06/01 10:18:50;;;;;;;0.00;0.00;;;;;;;26.38;35.02;102122.81;10539325;28;20016;-62
2021/06/01 10:23:53;;;;;;;0.10;0.10;;;;;;;26.12;32.44;102113.13;10541818;28;20098;-62
2021/06/01 10:28:55;;;;;;;0.00;0.00;;;;;;;25.97;37.39;102117.09;10542691;28;20640;-61
2021/06/01 10:34:00;;;;;;;0.00;0.00;;;;;;;25.52;37.09;102111.16;10542782;28;20056;-61
2021/06/01 10:54:41;;;;;;;0.10;0.10;;;;;;;24.88;37.00;102104.25;10541624;28;20032;-65
2021/06/01 11:05:14;;;;;;;0.10;0.10;;;;;;;25.08;36.01;102096.69;10572007;28;20063;-64
2021/06/01 11:10:39;;;;;;;0.10;0.10;;;;;;;25.27;35.45;102092.13;10582338;28;20058;-63
2021/06/01 11:15:40;;;;;;;0.10;0.10;;;;;;;25.01;36.61;102090.47;10562660;28;20024;-64
2021/06/01 11:21:08;;;;;;;0.10;0.10;;;;;;;25.12;37.80;102084.28;10580953;28;20055;-64
2021/06/01 11:36:47;;;;;;;0.10;0.10;;;;;;;24.76;37.11;102071.44;10578616;28;20023;-64
2021/06/01 11:46:59;;;;;;;0.10;0.10;;;;;;;25.09;38.13;102065.66;10581993;28;20499;-63
2021/06/01 11:52:00;;;;;;;0.10;0.10;;;;;;;25.02;40.23;102060.28;10581689;28;20024;-64
2021/06/01 11:57:21;;;;;;;0.10;0.10;;;;;;;24.76;38.59;102050.47;10580942;28;20093;-65
2021/06/01 12:13:08;;;;;;;0.10;0.10;;;;;;;23.99;41.65;102049.78;10580242;28;20102;-64
2021/06/01 12:18:36;;;;;;;0.10;0.10;;;;;;;23.91;41.56;102040.00;10581065;28;20032;-65
2021/06/01 12:23:34;;;;;;;0.10;0.10;;;;;;;24.12;42.11;102029.81;10579441;28;20432;-65
2021/06/01 12:45:02;;;;;;;0.10;0.10;;;;;;;23.68;45.20;102012.47;10548383;28;20028;-65
2021/06/01 13:38:54;;;;;;;0.00;0.00;;;;;;;25.40;42.56;101960.25;10576930;28;20446;-63
2021/06/01 15:50:31;;;;;;;0.10;0.10;;;;;;;22.84;48.73;101878.41;10581625;28;20470;-63
2021/06/01 15:59:03;;;;;;;0.10;0.10;;;;;;;22.74;48.88;101867.97;10581562;28;20393;-65
2021/06/01 16:44:15;;;;;;;0.10;0.10;;;;;;;21.67;52.94;101851.03;10537268;28;20024;-64
2021/06/01 17:05:27;;;;;;;0.00;0.00;;;;;;;20.48;52.81;101864.97;10530827;28;20111;-63
2021/06/01 17:15:53;;;;;;;0.10;0.10;;;;;;;19.83;53.71;101874.28;10561570;27;20050;-64
2021/06/01 17:21:32;;;;;;;0.10;0.10;;;;;;;19.53;54.76;101873.56;10619823;27;20029;-64
2021/06/01 17:37:10;;;;;;;0.10;0.10;;;;;;;18.36;49.94;101860.91;10577287;28;20470;-64
2021/06/01 17:42:16;;;;;;;0.10;0.10;;;;;;;18.04;49.40;101854.81;10577098;28;20024;-63
2021/06/01 17:47:24;;;;;;;0.10;0.10;;;;;;;17.81;51.83;101854.03;10577261;28;20023;-65
2021/06/01 17:52:29;;;;;;;0.10;0.10;;;;;;;17.67;51.03;101860.19;10577345;28;20027;-64
2021/06/01 17:57:29;;;;;;;0.10;0.10;;;;;;;17.72;47.00;101858.63;10577248;28;20311;-63
2021/06/01 18:02:32;;;;;;;0.10;0.10;;;;;;;17.79;45.81;101870.38;10546076;28;20051;-64
2021/06/01 18:07:42;;;;;;;0.10;0.10;;;;;;;17.74;43.69;101861.94;10534190;28;20032;-64
2021/06/01 19:06:15;;;;;;;0.05;0.05;;;;;;;15.75;53.47;101890.78;10541922;28;20020;-64
2021/06/01 19:22:41;;;;;;;0.10;0.10;;;;;;;14.85;60.93;101900.44;10556580;28;20032;-64
2021/06/01 19:54:44;;;;;;;0.10;0.10;;;;;;;14.01;62.50;101909.94;10582096;28;20031;-64
2021/06/01 19:59:45;;;;;;;0.10;0.10;;;;;;;13.91;63.25;101906.53;10580928;28;20027;-62
2021/06/01 20:04:49;;;;;;;0.10;0.10;;;;;;;13.83;61.08;101907.28;10580521;28;20031;-63
2021/06/01 20:09:50;;;;;;;0.10;0.10;;;;;;;13.91;59.27;101910.03;10579286;28;20028;-63
2021/06/01 20:14:54;;;;;;;0.10;0.10;;;;;;;14.03;59.73;101914.16;10520212;28;20039;-64
2021/06/01 20:19:56;;;;;;;0.10;0.10;;;;;;;14.09;59.81;101914.53;10537850;28;20023;-63
2021/06/01 20:25:03;;;;;;;0.10;0.10;;;;;;;14.05;59.97;101911.34;10537572;28;20036;-63
2021/06/01 20:30:06;;;;;;;0.10;0.10;;;;;;;13.97;60.77;101921.97;10537191;28;20038;-63
2021/06/01 20:35:27;;;;;;;0.10;0.10;;;;;;;13.78;63.16;101921.13;10571276;28;20094;-62
2021/06/01 20:40:27;;;;;;;0.10;0.10;;;;;;;13.47;66.92;101935.91;10578607;28;20062;-63
2021/06/01 20:45:30;;;;;;;0.17;0.17;;;;;;;12.97;68.41;101938.94;10579075;28;20145;-63
2021/06/01 20:50:33;;;;;;;0.10;0.10;;;;;;;12.50;69.01;101931.78;10578277;28;20073;-63
2021/06/01 20:55:33;;;;;;;0.10;0.10;;;;;;;12.07;69.77;101930.47;10578912;28;20024;-63
2021/06/01 21:00:36;;;;;;;0.10;0.10;;;;;;;11.67;71.69;101943.94;10577575;28;20023;-63
2021/06/01 21:05:38;;;;;;;0.10;0.10;;;;;;;11.36;72.42;101946.66;10577929;28;20038;-62
2021/06/01 21:10:40;;;;;;;0.10;0.10;;;;;;;11.31;70.28;101941.75;10566149;28;20475;-62
2021/06/01 21:15:41;;;;;;;0.10;0.10;;;;;;;11.35;70.72;101952.16;10572839;22;20058;-66
2021/06/01 21:20:41;;;;;;;0.10;0.10;;;;;;;11.33;71.14;101950.44;10532612;28;20027;-66
2021/06/01 21:25:42;;;;;;;0.10;0.10;;;;;;;11.17;71.18;101947.47;10514753;28;20458;-66
2021/06/01 21:30:42;;;;;;;0.10;0.10;;;;;;;10.96;73.75;101946.69;10532550;28;20020;-66
2021/06/01 21:35:46;;;;;;;0.10;0.10;;;;;;;10.61;75.09;101948.75;10532098;28;20077;-66
2021/06/01 21:40:47;;;;;;;;;;;;;;;10.35;76.20;101940.31;10502951;28;20183;-66
2021/06/01 21:45:50;;;;;;;0.10;0.10;;;;;;;10.15;77.50;101947.34;10528399;28;20002;-66
2021/06/01 21:50:51;;;;;;;0.10;0.10;;;;;;;10.02;78.36;101940.50;10499387;28;20070;-66
2021/06/01 21:55:54;;;;;;;0.10;0.10;;;;;;;9.90;80.08;101940.53;10522259;28;20074;-67
2021/06/01 22:00:54;;;;;;;0.05;0.05;;;;;;;9.81;79.91;101948.44;10498179;28;20055;-67
2021/06/01 22:05:56;;;;;;;0.10;0.10;;;;;;;9.72;80.95;101942.06;10506310;28;20052;-66
2021/06/01 22:10:56;;;;;;;0.00;0.00;;;;;;;9.63;81.45;101937.47;10519433;28;20389;-67
2021/06/01 22:15:59;;;;;;;0.10;0.10;;;;;;;9.55;82.36;101951.44;10537749;28;20074;-66
2021/06/01 22:21:19;;;;;;;0.10;0.10;;;;;;;9.62;83.61;101960.59;10536500;28;20056;-66
2021/06/01 22:26:25;;;;;;;0.10;0.10;;;;;;;9.71;83.79;101953.66;10504019;28;20043;-66
2021/06/01 22:31:32;;;;;;;0.00;0.00;;;;;;;9.73;83.80;101963.22;10519747;28;20028;-67
2021/06/01 22:36:35;;;;;;;0.10;0.10;;;;;;;9.75;84.53;101950.66;10499675;28;20035;-66
2021/06/01 22:41:35;;;;;;;0.00;0.00;;;;;;;9.85;84.83;101958.69;10533225;28;20099;-66
2021/06/01 22:46:37;;;;;;;0.10;0.10;;;;;;;9.92;85.29;101957.25;10512722;28;20025;-66
2021/06/01 22:51:40;;;;;;;0.10;0.10;;;;;;;9.92;85.39;101949.25;10500358;28;20020;-66
2021/06/01 22:56:44;;;;;;;0.00;0.00;;;;;;;9.82;85.75;101945.66;10508054;28;20383;-66
2021/06/01 23:01:44;;;;;;;0.10;0.10;;;;;;;9.70;85.67;101947.50;10521634;28;20020;-66
2021/06/01 23:06:45;;;;;;;0.10;0.10;;;;;;;9.58;85.33;101947.69;10524021;28;20046;-66
2021/06/01 23:11:46;;;;;;;0.00;0.00;;;;;;;9.37;85.38;101952.94;10499557;28;20127;-66
2021/06/01 23:16:48;;;;;;;0.00;0.00;;;;;;;9.20;86.58;101949.81;10512524;28;20532;-66
2021/06/01 23:21:52;;;;;;;0.00;0.00;;;;;;;9.25;87.74;101960.91;10517750;28;20020;-66
2021/06/01 23:26:53;;;;;;;0.10;0.10;;;;;;;9.35;88.18;101955.69;10508722;28;20032;-66
2021/06/01 23:31:55;;;;;;;0.00;0.00;;;;;;;9.42;87.71;101959.53;10514053;28;20127;-66
2021/06/01 23:37:02;;;;;;;0.03;0.03;;;;;;;9.47;87.06;101961.84;10509603;28;20031;-66
2021/06/01 23:42:03;;;;;;;0.10;0.10;;;;;;;9.39;85.57;101956.28;10517633;28;20031;-65
2021/06/01 23:47:10;;;;;;;0.00;0.00;;;;;;;9.10;84.93;101958.63;10501494;28;20025;-65
2021/06/01 23:52:10;;;;;;;0.05;0.05;;;;;;;8.73;85.21;101964.19;10502915;28;20130;-66
2021/06/01 23:57:11;;;;;;;0.00;0.00;;;;;;;8.52;86.40;101951.63;10518548;28;20106;-66
